Time;durP1;ratioP1;P1;durP2;ratioP2;P2;SDS_P1;SDS_P2;PMS_P1;PMS_P2;Temp;Humidity;BMP_temperature;BMP_pressure;BME280_temperature;BME280_humidity;BME280_pressure;Samples;Min_cycle;Max_cycle;Signal;HPM_P1;HPM_P2
2022/05/02 00:00:00;;;;;;;0.00;0.00;;;13.00;78.40;;;;;;4178223;28;20049;-72
2022/05/02 00:02:25;;;;;;;0.00;0.00;;;12.90;78.50;;;;;;4178561;28;20083;-69
2022/05/02 00:04:48;;;;;;;0.00;0.00;;;12.90;78.70;;;;;;4164213;28;20042;-70
2022/05/02 00:07:13;;;;;;;0.00;0.00;;;12.90;78.60;;;;;;4178392;28;20075;-70
2022/05/02 00:09:40;;;;;;;0.00;0.00;;;12.90;78.70;;;;;;4165358;28;20053;-69
2022/05/02 00:12:10;;;;;;;0.00;0.00;;;12.80;78.70;;;;;;4165218;28;20057;-72
2022/05/02 00:14:45;;;;;;;0.00;0.00;;;12.70;78.90;;;;;;4176148;28;20041;-72
2022/05/02 00:17:10;;;;;;;0.00;0.00;;;12.70;79.00;;;;;;4178293;28;20055;-74
2022/05/02 00:19:34;;;;;;;0.00;0.00;;;12.70;79.10;;;;;;4164416;28;20055;-71
2022/05/02 00:22:03;;;;;;;0.00;0.00;;;12.60;79.20;;;;;;4151178;28;20129;-70
2022/05/02 00:24:30;;;;;;;0.00;0.00;;;12.70;79.40;;;;;;4165086;28;20128;-72
2022/05/02 00:26:59;;;;;;;0.00;0.00;;;12.70;79.50;;;;;;4178229;28;20068;-75
2022/05/02 00:29:21;;;;;;;0.00;0.00;;;12.60;79.60;;;;;;4163976;28;20037;-73
2022/05/02 00:31:49;;;;;;;0.00;0.00;;;12.60;79.60;;;;;;4164248;28;20132;-74
2022/05/02 00:34:24;;;;;;;0.00;0.00;;;12.50;79.80;;;;;;4164279;28;20073;-71
2022/05/02 00:36:57;;;;;;;0.00;0.00;;;12.50;80.20;;;;;;4164413;28;20044;-75
2022/05/02 00:39:21;;;;;;;0.00;0.00;;;12.50;80.30;;;;;;4165057;28;20054;-73
2022/05/02 00:41:44;;;;;;;0.00;0.00;;;12.50;80.40;;;;;;4165148;28;20057;-72
2022/05/02 00:44:16;;;;;;;0.00;0.00;;;12.40;80.40;;;;;;4164152;28;20057;-75
2022/05/02 00:46:44;;;;;;;0.00;0.00;;;12.40;80.60;;;;;;4164810;28;20061;-71
2022/05/02 00:49:10;;;;;;;0.00;0.00;;;12.40;80.70;;;;;;4178022;28;20044;-70
2022/05/02 00:51:32;;;;;;;0.00;0.00;;;12.40;80.80;;;;;;4163828;28;20092;-73
2022/05/02 00:54:01;;;;;;;0.00;0.00;;;12.40;80.80;;;;;;4151292;28;20041;-70
2022/05/02 00:56:26;;;;;;;0.00;0.00;;;12.40;80.70;;;;;;4164239;28;20069;-72
2022/05/02 00:58:59;;;;;;;0.00;0.00;;;12.30;80.80;;;;;;4164760;28;20364;-71
2022/05/02 01:01:30;;;;;;;0.00;0.00;;;12.30;81.10;;;;;;4164185;28;20053;-74
2022/05/02 01:04:03;;;;;;;0.00;0.00;;;12.20;81.20;;;;;;4164919;28;20549;-73
2022/05/02 01:09:22;;;;;;;0.00;0.00;;;12.10;81.40;;;;;;4164696;28;20468;-74
2022/05/02 01:11:49;;;;;;;0.00;0.00;;;12.10;81.30;;;;;;4150823;28;20063;-70
2022/05/02 01:14:15;;;;;;;0.00;0.00;;;12.10;81.40;;;;;;4150223;28;20132;-73
2022/05/02 01:16:37;;;;;;;0.00;0.00;;;12.10;81.60;;;;;;4164690;28;20388;-71
2022/05/02 01:19:04;;;;;;;0.00;0.00;;;12.10;81.50;;;;;;4163954;28;20107;-72
2022/05/02 01:21:40;;;;;;;0.00;0.00;;;12.20;81.50;;;;;;4164055;28;20140;-75
2022/05/02 01:24:06;;;;;;;0.00;0.00;;;12.20;81.50;;;;;;4164595;28;20353;-71
2022/05/02 01:26:31;;;;;;;0.00;0.00;;;12.10;81.40;;;;;;4139714;28;20100;-71
2022/05/02 01:28:59;;;;;;;0.00;0.00;;;12.10;81.50;;;;;;4167355;28;20088;-69
2022/05/02 01:31:23;;;;;;;0.00;0.00;;;12.10;81.60;;;;;;4166783;28;20136;-71
2022/05/02 01:34:00;;;;;;;0.00;0.00;;;12.10;81.60;;;;;;4167495;28;20049;-72
2022/05/02 01:36:36;;;;;;;0.00;0.00;;;12.10;81.70;;;;;;4141104;28;20062;-72
2022/05/02 01:39:01;;;;;;;0.00;0.00;;;12.10;81.80;;;;;;4153605;28;20084;-70
2022/05/02 01:41:23;;;;;;;0.00;0.00;;;12.10;81.90;;;;;;4139344;28;20066;-73
2022/05/02 01:43:46;;;;;;;0.00;0.00;;;12.10;81.80;;;;;;4166670;28;20092;-70
2022/05/02 01:46:11;;;;;;;0.00;0.00;;;12.10;82.10;;;;;;4166600;28;20060;-70
2022/05/02 01:48:33;;;;;;;0.00;0.00;;;12.00;82.20;;;;;;4166587;28;20484;-70
2022/05/02 01:51:01;;;;;;;0.00;0.00;;;12.00;82.30;;;;;;4152651;28;20107;-71
2022/05/02 01:53:23;;;;;;;0.00;0.00;;;11.90;82.50;;;;;;4166490;28;20049;-71
2022/05/02 01:55:45;;;;;;;0.00;0.00;;;11.90;82.70;;;;;;4139413;28;20057;-71
2022/05/02 01:58:07;;;;;;;0.00;0.00;;;11.90;82.70;;;;;;4166535;28;20041;-72
2022/05/02 02:00:29;;;;;;;0.00;0.00;;;11.80;82.80;;;;;;4150476;28;20100;-71
2022/05/02 02:02:51;;;;;;;0.00;0.00;;;11.90;83.00;;;;;;4152360;28;20054;-72
2022/05/02 02:07:59;;;;;;;0.00;0.00;;;11.90;83.00;;;;;;4152358;28;20058;-73
2022/05/02 02:10:21;;;;;;;0.00;0.00;;;11.90;83.10;;;;;;4166162;28;20041;-76
2022/05/02 02:12:43;;;;;;;0.00;0.00;;;11.80;83.40;;;;;;4152562;28;20057;-70
2022/05/02 02:15:05;;;;;;;0.00;0.00;;;11.80;83.70;;;;;;4166070;28;20046;-72
2022/05/02 02:17:27;;;;;;;0.00;0.00;;;11.70;83.80;;;;;;4152514;28;20068;-70
2022/05/02 02:19:52;;;;;;;0.00;0.00;;;11.80;83.80;;;;;;4138014;28;20062;-69
2022/05/02 02:22:16;;;;;;;0.00;0.00;;;11.70;83.90;;;;;;4125448;28;20407;-73
2022/05/02 02:24:46;;;;;;;0.00;0.00;;;11.70;83.90;;;;;;4161852;28;20499;-74
2022/05/02 02:27:09;;;;;;;0.00;0.00;;;11.70;84.00;;;;;;4166252;28;20049;-71
2022/05/02 02:29:33;;;;;;;0.00;0.00;;;11.70;83.90;;;;;;4169256;28;20037;-75
2022/05/02 02:31:55;;;;;;;0.00;0.00;;;11.70;84.00;;;;;;4182892;28;20072;-73
2022/05/02 02:34:17;;;;;;;0.00;0.00;;;11.70;84.20;;;;;;4155159;28;20161;-72
2022/05/02 02:36:39;;;;;;;0.00;0.00;;;11.40;85.30;;;;;;4154650;28;20396;-69
2022/05/02 02:39:01;;;;;;;0.00;0.00;;;11.40;85.90;;;;;;4168843;28;20088;-71
2022/05/02 02:41:23;;;;;;;0.00;0.00;;;11.40;85.70;;;;;;4154887;28;20070;-70
2022/05/02 02:43:45;;;;;;;0.00;0.00;;;11.40;85.50;;;;;;4168842;28;20189;-72
2022/05/02 02:46:08;;;;;;;0.00;0.00;;;11.50;85.60;;;;;;4168494;28;20067;-71
2022/05/02 02:48:34;;;;;;;0.00;0.00;;;11.50;85.50;;;;;;4168405;28;20496;-73
2022/05/02 02:51:02;;;;;;;0.00;0.00;;;11.50;85.80;;;;;;4168195;28;20045;-73
2022/05/02 02:53:27;;;;;;;0.00;0.00;;;11.40;85.90;;;;;;4168233;28;20149;-70
2022/05/02 02:55:51;;;;;;;0.00;0.00;;;11.40;86.10;;;;;;4154540;28;20476;-74
2022/05/02 02:58:13;;;;;;;0.00;0.00;;;11.40;86.00;;;;;;4154727;28;20042;-72
2022/05/02 03:00:35;;;;;;;0.00;0.00;;;11.40;85.90;;;;;;4154782;28;20083;-73
2022/05/02 03:02:58;;;;;;;0.00;0.00;;;11.30;86.20;;;;;;4154822;28;20372;-72
2022/05/02 03:08:05;;;;;;;0.00;0.00;;;11.30;86.70;;;;;;4168178;28;20072;-73
2022/05/02 03:10:27;;;;;;;0.00;0.00;;;11.20;86.70;;;;;;4168412;28;20103;-72
2022/05/02 03:12:51;;;;;;;0.00;0.00;;;11.30;86.80;;;;;;4167874;28;20053;-73
2022/05/02 03:15:16;;;;;;;0.00;0.00;;;11.20;86.90;;;;;;4140755;28;20065;-71
2022/05/02 03:17:38;;;;;;;0.00;0.00;;;11.30;86.90;;;;;;4154104;28;20057;-72
2022/05/02 03:20:03;;;;;;;0.00;0.00;;;11.30;86.60;;;;;;4167965;28;20045;-75
2022/05/02 03:22:29;;;;;;;0.00;0.00;;;11.30;86.60;;;;;;4167854;28;20042;-70
2022/05/02 03:24:56;;;;;;;0.00;0.00;;;11.30;86.40;;;;;;4167814;28;20041;-70
2022/05/02 03:27:21;;;;;;;0.00;0.00;;;11.30;86.60;;;;;;4167914;28;20041;-73
2022/05/02 03:29:45;;;;;;;0.00;0.00;;;11.30;86.60;;;;;;4153851;28;20096;-72
2022/05/02 03:32:07;;;;;;;0.00;0.00;;;11.30;86.70;;;;;;4154007;28;20083;-71
2022/05/02 03:34:31;;;;;;;0.00;0.00;;;11.30;86.60;;;;;;4153738;28;20046;-73
2022/05/02 03:36:56;;;;;;;0.00;0.00;;;11.20;86.70;;;;;;4154176;28;20053;-70
2022/05/02 03:39:18;;;;;;;0.00;0.00;;;11.20;87.10;;;;;;4153683;28;20061;-74
2022/05/02 03:41:42;;;;;;;0.00;0.00;;;11.20;87.10;;;;;;4167381;28;20045;-72
2022/05/02 03:44:04;;;;;;;0.00;0.00;;;11.20;87.00;;;;;;4167429;28;20064;-71
2022/05/02 03:46:26;;;;;;;0.00;0.00;;;11.20;87.10;;;;;;4154057;28;20053;-73
2022/05/02 03:48:51;;;;;;;0.00;0.00;;;11.20;87.00;;;;;;4166611;28;20045;-72
2022/05/02 03:51:18;;;;;;;0.00;0.00;;;11.20;87.20;;;;;;4167435;28;20053;-69
2022/05/02 03:53:40;;;;;;;0.00;0.00;;;11.20;87.30;;;;;;4154328;28;20045;-71
2022/05/02 03:56:04;;;;;;;0.00;0.00;;;11.20;87.30;;;;;;4167382;28;20099;-70
2022/05/02 03:58:26;;;;;;;0.00;0.00;;;11.20;87.90;;;;;;4167402;28;20041;-71
2022/05/02 04:00:49;;;;;;;0.00;0.00;;;11.10;87.60;;;;;;4154236;28;20060;-71
2022/05/02 04:03:11;;;;;;;0.00;0.00;;;11.10;87.60;;;;;;4167556;28;20096;-70
2022/05/02 04:05:36;;;;;;;0.00;0.00;;;11.10;87.70;;;;;;4154330;28;20042;-71
2022/05/02 04:08:00;;;;;;;0.00;0.00;;;11.10;87.90;;;;;;4167790;28;20076;-77
2022/05/02 04:10:22;;;;;;;0.00;0.00;;;11.00;88.10;;;;;;4153852;28;20381;-72
2022/05/02 04:12:46;;;;;;;0.00;0.00;;;11.00;88.10;;;;;;4154293;28;20383;-70
2022/05/02 04:15:13;;;;;;;0.00;0.00;;;11.00;88.10;;;;;;4154423;28;20033;-72
2022/05/02 04:17:36;;;;;;;0.00;0.00;;;11.00;88.00;;;;;;4154229;28;20130;-75
2022/05/02 04:20:01;;;;;;;0.00;0.00;;;10.90;88.10;;;;;;4167433;28;20128;-72
2022/05/02 04:22:25;;;;;;;0.00;0.00;;;10.90;88.30;;;;;;4154124;28;20103;-72
2022/05/02 04:24:47;;;;;;;0.00;0.00;;;10.80;88.70;;;;;;4153991;28;20049;-73
2022/05/02 04:27:15;;;;;;;0.00;0.00;;;10.80;88.90;;;;;;4140559;28;20052;-71
2022/05/02 04:29:39;;;;;;;0.00;0.00;;;10.80;88.90;;;;;;4167213;28;20103;-72
2022/05/02 04:32:06;;;;;;;0.00;0.00;;;10.80;88.90;;;;;;4154068;28;20056;-72
2022/05/02 04:34:28;;;;;;;0.00;0.00;;;10.80;88.90;;;;;;4153554;28;20152;-70
2022/05/02 04:36:50;;;;;;;0.00;0.00;;;10.90;88.80;;;;;;4167389;28;20046;-70
2022/05/02 04:39:14;;;;;;;0.00;0.00;;;10.90;88.60;;;;;;4167580;28;20091;-69
2022/05/02 04:41:36;;;;;;;0.00;0.00;;;10.90;88.40;;;;;;4167578;28;20147;-72
2022/05/02 04:43:58;;;;;;;0.00;0.00;;;10.90;88.40;;;;;;4167537;28;20162;-74
2022/05/02 04:46:23;;;;;;;0.00;0.00;;;11.00;88.30;;;;;;4167556;28;20064;-74
2022/05/02 04:48:47;;;;;;;0.00;0.00;;;11.00;88.20;;;;;;4167283;28;20053;-72
2022/05/02 04:51:09;;;;;;;0.00;0.00;;;11.00;88.30;;;;;;4167534;28;20124;-70
2022/05/02 04:53:31;;;;;;;0.00;0.00;;;11.00;88.40;;;;;;4153620;28;20046;-73
2022/05/02 04:55:53;;;;;;;0.00;0.00;;;11.00;88.50;;;;;;4139985;28;20433;-76
2022/05/02 04:58:17;;;;;;;0.00;0.00;;;11.00;88.50;;;;;;4153880;28;20053;-71
2022/05/02 05:00:39;;;;;;;0.00;0.00;;;11.10;88.60;;;;;;4171983;28;20053;-69
2022/05/02 05:03:06;;;;;;;0.00;0.00;;;11.10;88.90;;;;;;4187004;28;20076;-72
2022/05/02 05:05:34;;;;;;;0.00;0.00;;;11.00;88.80;;;;;;4172810;28;20201;-70
2022/05/02 05:08:00;;;;;;;0.00;0.00;;;11.10;89.00;;;;;;4186711;28;20060;-72
2022/05/02 05:10:22;;;;;;;0.00;0.00;;;11.20;89.00;;;;;;4172781;28;20085;-71
2022/05/02 05:13:07;;;;;;;0.00;0.00;;;11.30;89.10;;;;;;4172890;28;20125;-71
2022/05/02 05:16:24;;;;;;;0.00;0.00;;;11.30;89.40;;;;;;4173165;28;20055;-70
2022/05/02 05:19:26;;;;;;;0.00;0.00;;;11.30;89.70;;;;;;4186250;28;20040;-70
2022/05/02 05:22:20;;;;;;;0.00;0.00;;;11.50;90.00;;;;;;4186209;28;20170;-72
2022/05/02 05:24:48;;;;;;;0.00;0.00;;;11.60;89.80;;;;;;4186257;28;20132;-71
2022/05/02 05:27:23;;;;;;;0.00;0.00;;;11.80;89.50;;;;;;4186531;28;20136;-69
2022/05/02 05:30:12;;;;;;;0.00;0.00;;;11.90;89.10;;;;;;4186664;28;20103;-71
2022/05/02 05:32:46;;;;;;;0.00;0.00;;;12.10;89.00;;;;;;4186248;28;20102;-74
2022/05/02 05:35:10;;;;;;;0.00;0.00;;;12.10;88.90;;;;;;4186368;28;20037;-73
2022/05/02 05:38:01;;;;;;;0.00;0.00;;;12.20;88.60;;;;;;4173159;28;20049;-71
2022/05/02 05:40:32;;;;;;;0.00;0.00;;;12.40;88.30;;;;;;4186405;28;20053;-70
2022/05/02 05:43:07;;;;;;;0.00;0.00;;;12.40;88.10;;;;;;4186334;28;20479;-70
2022/05/02 05:45:40;;;;;;;0.00;0.00;;;12.50;87.90;;;;;;4186238;28;20057;-73
2022/05/02 05:48:17;;;;;;;0.00;0.00;;;12.70;88.00;;;;;;4185894;28;20051;-72
2022/05/02 05:50:51;;;;;;;0.00;0.00;;;12.80;87.70;;;;;;4172021;28;20436;-72
2022/05/02 05:53:39;;;;;;;0.00;0.00;;;12.90;87.20;;;;;;4186367;28;20440;-71
2022/05/02 05:56:12;;;;;;;0.00;0.00;;;12.90;87.20;;;;;;4172661;28;20097;-74
2022/05/02 05:58:45;;;;;;;0.00;0.00;;;13.00;87.50;;;;;;4185737;28;20053;-73
2022/05/02 06:01:17;;;;;;;0.00;0.00;;;13.20;86.40;;;;;;4185475;28;20536;-72
2022/05/02 06:04:19;;;;;;;0.00;0.00;;;13.20;86.20;;;;;;4185845;28;20060;-71
2022/05/02 06:06:49;;;;;;;0.00;0.00;;;13.20;86.30;;;;;;4171898;28;20053;-74
2022/05/02 06:09:17;;;;;;;0.00;0.00;;;13.20;86.50;;;;;;4185808;28;20541;-73
2022/05/02 06:11:45;;;;;;;0.00;0.00;;;13.10;86.90;;;;;;4185100;28;20101;-72
2022/05/02 06:14:12;;;;;;;0.00;0.00;;;13.30;86.70;;;;;;4186030;28;20356;-72
2022/05/02 06:19:31;;;;;;;0.00;0.00;;;13.40;86.30;;;;;;4185641;28;20387;-73
2022/05/02 06:21:57;;;;;;;0.00;0.00;;;13.40;85.90;;;;;;4158792;28;20392;-74
2022/05/02 06:24:27;;;;;;;0.00;0.00;;;13.60;85.70;;;;;;4171839;28;20048;-72
2022/05/02 06:26:51;;;;;;;0.00;0.00;;;13.70;85.70;;;;;;4185781;28;20551;-75
2022/05/02 06:29:18;;;;;;;0.00;0.00;;;13.80;85.40;;;;;;4171974;28;20049;-73
2022/05/02 06:31:48;;;;;;;0.00;0.00;;;14.00;85.70;;;;;;4171917;28;20045;-75
2022/05/02 06:34:15;;;;;;;0.00;0.00;;;14.10;84.10;;;;;;4185414;28;20037;-74
2022/05/02 06:37:07;;;;;;;0.00;0.00;;;14.00;84.40;;;;;;4171277;28;20053;-76
2022/05/02 06:40:01;;;;;;;0.00;0.00;;;14.00;84.40;;;;;;4177514;28;20136;-72
2022/05/02 06:42:30;;;;;;;0.00;0.00;;;13.90;84.70;;;;;;4149718;28;20100;-73
2022/05/02 06:45:01;;;;;;;0.00;0.00;;;13.90;85.30;;;;;;4165667;28;20048;-74
2022/05/02 06:47:38;;;;;;;0.00;0.00;;;14.30;84.60;;;;;;4165422;28;20626;-73
2022/05/02 06:50:04;;;;;;;0.00;0.00;;;14.20;83.70;;;;;;4167441;28;20114;-72
2022/05/02 06:52:47;;;;;;;0.00;0.00;;;14.30;83.70;;;;;;4168440;28;20041;-75
2022/05/02 06:55:30;;;;;;;0.00;0.00;;;14.30;84.00;;;;;;4168257;28;20608;-74
2022/05/02 06:57:55;;;;;;;0.00;0.00;;;14.60;82.90;;;;;;4182140;28;20045;-75
2022/05/02 07:00:20;;;;;;;0.00;0.00;;;14.30;82.70;;;;;;4181822;28;20490;-74
2022/05/02 07:03:26;;;;;;;0.00;0.00;;;14.20;84.10;;;;;;4182144;28;20434;-75
2022/05/02 07:06:42;;;;;;;0.00;0.00;;;14.60;84.20;;;;;;4138143;28;20062;-72
2022/05/02 07:09:10;;;;;;;0.00;0.00;;;14.70;82.70;;;;;;4137372;28;20054;-73
2022/05/02 07:11:50;;;;;;;0.00;0.00;;;14.70;82.10;;;;;;4167381;28;20045;-73
2022/05/02 07:14:33;;;;;;;0.00;0.00;;;14.00;83.70;;;;;;4167494;28;20057;-73
2022/05/02 07:17:01;;;;;;;0.00;0.00;;;13.50;84.90;;;;;;4167071;28;20120;-72
2022/05/02 07:19:34;;;;;;;0.00;0.00;;;13.60;85.80;;;;;;4167434;28;20041;-72
2022/05/02 07:22:00;;;;;;;0.00;0.00;;;14.00;84.30;;;;;;4167697;28;20081;-72
2022/05/02 07:24:40;;;;;;;0.00;0.00;;;14.10;83.30;;;;;;4154019;28;20107;-74
2022/05/02 07:27:27;;;;;;;0.00;0.00;;;13.80;84.00;;;;;;4168129;28;20149;-71
2022/05/02 07:29:51;;;;;;;0.00;0.00;;;14.00;84.60;;;;;;4168002;28;20060;-71
2022/05/02 07:32:14;;;;;;;0.00;0.00;;;14.20;83.70;;;;;;4167926;28;20053;-72
2022/05/02 07:34:38;;;;;;;0.00;0.00;;;14.40;82.90;;;;;;4167799;28;20119;-73
2022/05/02 07:37:03;;;;;;;0.00;0.00;;;14.60;82.70;;;;;;4181451;28;20045;-73
2022/05/02 07:39:30;;;;;;;0.00;0.00;;;14.50;82.00;;;;;;4167684;28;20100;-73
2022/05/02 07:41:52;;;;;;;0.00;0.00;;;14.50;82.00;;;;;;4167825;28;20111;-73
2022/05/02 07:44:16;;;;;;;0.00;0.00;;;14.60;82.50;;;;;;4167926;28;20042;-74
2022/05/02 07:46:43;;;;;;;0.00;0.00;;;15.10;81.10;;;;;;4167675;28;20057;-72
2022/05/02 07:49:07;;;;;;;0.00;0.00;;;15.00;80.70;;;;;;4167922;28;20155;-71
2022/05/02 07:51:32;;;;;;;0.00;0.00;;;14.90;80.30;;;;;;4167746;28;20115;-72
2022/05/02 07:53:58;;;;;;;0.00;0.00;;;14.80;80.60;;;;;;4167819;28;20467;-75
2022/05/02 07:56:24;;;;;;;0.00;0.00;;;14.80;81.00;;;;;;4153608;28;20416;-71
2022/05/02 07:58:50;;;;;;;0.00;0.00;;;15.00;81.30;;;;;;4167787;28;20491;-72
2022/05/02 08:01:17;;;;;;;0.00;0.00;;;15.10;80.00;;;;;;4181388;28;20106;-73
2022/05/02 08:03:42;;;;;;;0.00;0.00;;;15.00;80.80;;;;;;4167210;28;20033;-74
2022/05/02 08:06:19;;;;;;;0.00;0.00;;;14.80;80.90;;;;;;4153883;28;20378;-73
2022/05/02 08:09:16;;;;;;;0.00;0.00;;;14.70;81.00;;;;;;4168253;28;20123;-72
2022/05/02 08:12:04;;;;;;;0.00;0.00;;;14.40;81.30;;;;;;4162610;28;20110;-72
2022/05/02 08:14:50;;;;;;;0.00;0.00;;;14.30;81.80;;;;;;4155040;28;20065;-75
2022/05/02 08:17:40;;;;;;;0.00;0.00;;;14.50;81.80;;;;;;4181339;28;20048;-75
2022/05/02 08:20:20;;;;;;;0.00;0.00;;;14.60;81.80;;;;;;4167432;28;20083;-74
2022/05/02 08:29:22;;;;;;;0.00;0.00;;;15.00;79.30;;;;;;4154952;28;20046;-71
2022/05/02 08:32:01;;;;;;;0.00;0.00;;;15.20;78.90;;;;;;4141095;28;20054;-74
2022/05/02 08:34:40;;;;;;;0.00;0.00;;;15.10;79.70;;;;;;4183358;28;20063;-74
2022/05/02 08:37:28;;;;;;;0.00;0.00;;;15.20;79.40;;;;;;4172191;28;20100;-74
2022/05/02 08:39:50;;;;;;;0.00;0.00;;;15.30;79.40;;;;;;4156787;28;20062;-73
2022/05/02 08:42:48;;;;;;;0.00;0.00;;;15.30;79.10;;;;;;4170594;28;20052;-74
2022/05/02 08:46:02;;;;;;;0.00;0.00;;;15.20;79.60;;;;;;4171239;28;20061;-74
2022/05/02 08:48:48;;;;;;;0.00;0.00;;;15.30;79.00;;;;;;4184772;28;20063;-73
2022/05/02 08:51:13;;;;;;;0.00;0.00;;;14.90;78.80;;;;;;4156426;28;20044;-73
2022/05/02 08:53:53;;;;;;;0.00;0.00;;;14.90;79.60;;;;;;4157088;28;20121;-72
2022/05/02 08:56:41;;;;;;;0.00;0.00;;;14.90;79.40;;;;;;4157243;28;20053;-72
2022/05/02 08:59:19;;;;;;;0.00;0.00;;;14.90;79.30;;;;;;4142839;28;20057;-71
2022/05/02 09:01:58;;;;;;;0.00;0.00;;;15.00;79.30;;;;;;4170501;28;20092;-73
2022/05/02 09:04:42;;;;;;;0.00;0.00;;;15.10;79.80;;;;;;4156682;28;20121;-72
2022/05/02 09:07:11;;;;;;;0.00;0.00;;;15.50;78.00;;;;;;4143284;28;20132;-72
2022/05/02 09:10:11;;;;;;;0.00;0.00;;;15.60;77.30;;;;;;4170167;28;20045;-72
2022/05/02 09:13:30;;;;;;;0.00;0.00;;;15.90;77.40;;;;;;4157635;28;20538;-74
2022/05/02 09:16:13;;;;;;;0.00;0.00;;;16.30;76.80;;;;;;4153110;28;20057;-75
2022/05/02 09:18:52;;;;;;;0.00;0.00;;;16.50;75.40;;;;;;4153209;28;20042;-73
2022/05/02 09:21:38;;;;;;;0.00;0.00;;;16.70;74.80;;;;;;4169477;28;20350;-74
2022/05/02 09:24:12;;;;;;;0.00;0.00;;;16.80;73.60;;;;;;4170060;28;20037;-71
2022/05/02 09:26:56;;;;;;;0.00;0.00;;;16.90;73.60;;;;;;4157135;28;20054;-74
2022/05/02 09:29:48;;;;;;;0.00;0.00;;;16.90;74.10;;;;;;4169896;28;20060;-74
2022/05/02 09:32:16;;;;;;;0.00;0.00;;;16.90;74.40;;;;;;4170035;28;20046;-74
2022/05/02 09:34:57;;;;;;;0.00;0.00;;;17.20;73.60;;;;;;4169951;28;20149;-72
2022/05/02 09:37:40;;;;;;;0.00;0.00;;;17.30;72.30;;;;;;4156080;28;20045;-72
2022/05/02 09:40:08;;;;;;;0.00;0.00;;;17.10;72.60;;;;;;4155755;28;20369;-73
2022/05/02 09:49:33;;;;;;;0.00;0.00;;;17.20;73.30;;;;;;4183655;28;20106;-74
2022/05/02 09:52:03;;;;;;;0.00;0.00;;;17.20;73.50;;;;;;4169410;28;20092;-74
2022/05/02 09:57:21;;;;;;;0.00;0.00;;;17.10;74.10;;;;;;4169802;28;20053;-71
2022/05/02 10:01:06;;;;;;;0.00;0.00;;;17.20;74.20;;;;;;4155505;28;20062;-71
2022/05/02 10:02:46;;;;;;;0.00;0.00;;;17.20;74.30;;;;;;4183067;28;20729;-74
2022/05/02 10:05:10;;;;;;;0.00;0.00;;;17.30;74.20;;;;;;4169210;28;20150;-71
2022/05/02 10:08:20;;;;;;;0.00;0.00;;;17.60;73.90;;;;;;4169120;28;20053;-73
2022/05/02 10:11:04;;;;;;;0.00;0.00;;;17.50;73.10;;;;;;4169127;28;20052;-72
2022/05/02 10:14:06;;;;;;;0.00;0.00;;;17.70;73.70;;;;;;4155895;28;20496;-72
2022/05/02 10:16:57;;;;;;;0.00;0.00;;;17.70;73.90;;;;;;4152869;28;20054;-76
2022/05/02 10:19:37;;;;;;;0.00;0.00;;;17.80;73.20;;;;;;4169489;28;20077;-73
2022/05/02 10:22:27;;;;;;;0.00;0.00;;;17.60;72.90;;;;;;4169471;28;20049;-72
2022/05/02 10:25:07;;;;;;;0.00;0.00;;;17.40;72.50;;;;;;4169814;28;20048;-74
2022/05/02 10:27:40;;;;;;;0.00;0.00;;;17.00;73.90;;;;;;4169486;28;20121;-75
2022/05/02 10:30:12;;;;;;;0.00;0.00;;;17.10;74.90;;;;;;4155317;28;20101;-72
2022/05/02 10:32:42;;;;;;;0.00;0.00;;;17.40;74.90;;;;;;4169286;28;20480;-73
2022/05/02 10:35:07;;;;;;;0.00;0.00;;;17.50;74.10;;;;;;4155797;28;20466;-75
2022/05/02 10:37:35;;;;;;;0.00;0.00;;;17.70;74.30;;;;;;4169072;28;20437;-72
2022/05/02 10:40:08;;;;;;;0.00;0.00;;;17.80;74.40;;;;;;4169463;28;20133;-73
2022/05/02 10:42:33;;;;;;;0.00;0.00;;;18.00;73.90;;;;;;4169115;28;20045;-73
2022/05/02 10:45:07;;;;;;;0.00;0.00;;;18.20;73.60;;;;;;4182561;28;20040;-73
2022/05/02 10:47:36;;;;;;;0.00;0.00;;;18.40;73.90;;;;;;4169107;28;20090;-73
2022/05/02 10:50:08;;;;;;;0.00;0.00;;;18.60;72.40;;;;;;4169321;28;20115;-73
2022/05/02 10:52:47;;;;;;;0.00;0.00;;;18.60;72.40;;;;;;4156227;28;20376;-71
2022/05/02 10:55:27;;;;;;;0.00;0.00;;;18.80;71.10;;;;;;4155424;28;20037;-72
2022/05/02 10:58:00;;;;;;;0.00;0.00;;;19.00;71.00;;;;;;4167984;28;20111;-72
2022/05/02 11:00:24;;;;;;;0.00;0.00;;;18.90;71.90;;;;;;4182603;28;20045;-71
2022/05/02 11:03:05;;;;;;;0.00;0.00;;;19.00;72.60;;;;;;4154868;28;20046;-75
2022/05/02 11:05:43;;;;;;;0.00;0.00;;;19.20;71.30;;;;;;4154911;28;20050;-74
2022/05/02 11:08:30;;;;;;;0.00;0.00;;;19.40;71.60;;;;;;4168294;28;20045;-74
2022/05/02 11:10:58;;;;;;;0.00;0.00;;;19.40;70.20;;;;;;4168379;28;20048;-72
2022/05/02 11:13:26;;;;;;;0.00;0.00;;;19.30;70.80;;;;;;4154699;28;20050;-74
2022/05/02 11:16:17;;;;;;;0.00;0.00;;;19.30;70.60;;;;;;4168627;28;20049;-71
2022/05/02 11:21:48;;;;;;;0.00;0.00;;;19.00;71.00;;;;;;4154866;28;20120;-71
2022/05/02 11:24:30;;;;;;;0.00;0.00;;;19.00;71.00;;;;;;4168709;28;20391;-72
2022/05/02 11:27:24;;;;;;;0.00;0.00;;;19.20;71.10;;;;;;4168363;28;20128;-73
2022/05/02 11:30:08;;;;;;;0.00;0.00;;;19.40;71.60;;;;;;4155056;28;20045;-73
2022/05/02 11:32:55;;;;;;;0.00;0.00;;;19.60;70.30;;;;;;4168139;28;20639;-74
2022/05/02 11:35:35;;;;;;;0.00;0.00;;;19.50;70.20;;;;;;4168271;28;20548;-71
2022/05/02 11:38:21;;;;;;;0.00;0.00;;;19.70;68.70;;;;;;4181964;28;20052;-72
2022/05/02 11:40:53;;;;;;;0.00;0.00;;;19.80;67.80;;;;;;4154631;28;20477;-74
2022/05/02 11:43:20;;;;;;;0.00;0.00;;;20.10;67.50;;;;;;4154470;28;20527;-70
2022/05/02 11:45:49;;;;;;;0.00;0.00;;;20.20;67.50;;;;;;4167795;28;20040;-72
2022/05/02 11:48:20;;;;;;;0.00;0.00;;;20.20;67.20;;;;;;4168163;28;20041;-73
2022/05/02 11:50:44;;;;;;;0.00;0.00;;;20.30;65.80;;;;;;4167982;28;20091;-73
2022/05/02 11:53:09;;;;;;;0.00;0.00;;;20.40;64.00;;;;;;4168251;28;20499;-72
2022/05/02 11:55:34;;;;;;;0.00;0.00;;;20.40;64.60;;;;;;4167912;28;20046;-72
2022/05/02 11:58:13;;;;;;;0.00;0.00;;;20.60;65.50;;;;;;4168302;28;20049;-72
2022/05/02 12:00:37;;;;;;;0.00;0.00;;;20.70;64.00;;;;;;4154707;28;20100;-70
2022/05/02 12:03:20;;;;;;;0.00;0.00;;;20.80;64.00;;;;;;4167955;28;20045;-70
2022/05/02 12:06:01;;;;;;;0.00;0.00;;;20.90;62.70;;;;;;4181681;28;20091;-72
2022/05/02 12:08:36;;;;;;;0.00;0.00;;;20.90;62.00;;;;;;4181521;28;20040;-73
2022/05/02 12:11:08;;;;;;;0.00;0.00;;;21.00;60.30;;;;;;4167880;28;20041;-74
2022/05/02 12:13:42;;;;;;;0.00;0.00;;;21.00;58.10;;;;;;4168417;28;20061;-72
2022/05/02 12:16:10;;;;;;;0.00;0.00;;;21.00;58.00;;;;;;4140981;28;20045;-74
2022/05/02 12:18:55;;;;;;;0.00;0.00;;;21.10;59.00;;;;;;4167675;28;20065;-73
2022/05/02 12:21:35;;;;;;;0.00;0.00;;;21.10;59.40;;;;;;4167663;28;20135;-74
2022/05/02 12:23:59;;;;;;;0.00;0.00;;;21.20;58.70;;;;;;4153633;28;20050;-72
2022/05/02 12:26:23;;;;;;;0.00;0.00;;;21.20;56.20;;;;;;4167722;28;20045;-72
2022/05/02 12:28:52;;;;;;;0.00;0.00;;;21.30;55.10;;;;;;4167806;28;20075;-73
2022/05/02 12:31:32;;;;;;;0.00;0.00;;;21.10;53.20;;;;;;4153776;28;20042;-75
2022/05/02 12:34:09;;;;;;;0.00;0.00;;;20.80;52.30;;;;;;4167816;28;20049;-71
2022/05/02 12:36:38;;;;;;;0.00;0.00;;;20.60;52.20;;;;;;4153935;28;20637;-72
2022/05/02 12:39:01;;;;;;;0.00;0.00;;;20.80;53.00;;;;;;4140385;28;20042;-73
2022/05/02 12:41:26;;;;;;;0.00;0.00;;;20.90;53.60;;;;;;4153616;28;20100;-72
2022/05/02 12:43:53;;;;;;;0.00;0.00;;;21.00;54.30;;;;;;4181448;28;20463;-70
2022/05/02 12:46:21;;;;;;;0.00;0.00;;;21.10;55.70;;;;;;4167333;28;20037;-73
2022/05/02 12:49:01;;;;;;;0.00;0.00;;;21.10;52.40;;;;;;4167122;28;20046;-74
2022/05/02 12:51:28;;;;;;;0.00;0.00;;;21.00;50.50;;;;;;4167367;28;20041;-73
2022/05/02 12:54:12;;;;;;;0.00;0.00;;;20.90;50.40;;;;;;4167387;28;20091;-73
2022/05/02 13:02:50;;;;;;;0.00;0.00;;;21.20;49.20;;;;;;4153519;28;20056;-73
2022/05/02 13:05:17;;;;;;;0.00;0.00;;;21.20;48.80;;;;;;4167280;28;20071;-71
2022/05/02 13:07:47;;;;;;;0.00;0.00;;;21.20;48.80;;;;;;4139604;28;20039;-73
2022/05/02 13:10:26;;;;;;;0.00;0.00;;;21.00;47.40;;;;;;4181069;28;20037;-72
2022/05/02 13:13:03;;;;;;;0.00;0.00;;;20.80;47.90;;;;;;4153392;28;20688;-71
2022/05/02 13:15:31;;;;;;;0.00;0.00;;;20.80;49.20;;;;;;4168006;28;20480;-72
2022/05/02 13:18:02;;;;;;;0.00;0.00;;;20.90;48.30;;;;;;4181553;28;20352;-73
2022/05/02 13:21:11;;;;;;;0.00;0.00;;;21.00;46.40;;;;;;4167869;28;20133;-71
2022/05/02 13:23:44;;;;;;;0.00;0.00;;;20.90;47.50;;;;;;4170155;28;20045;-71
2022/05/02 13:26:18;;;;;;;0.00;0.00;;;21.10;47.80;;;;;;4170693;28;20053;-72
2022/05/02 13:29:01;;;;;;;0.00;0.00;;;21.30;48.30;;;;;;4156398;28;20053;-74
2022/05/02 13:31:56;;;;;;;0.00;0.00;;;21.40;46.40;;;;;;4156207;28;20085;-72
2022/05/02 13:35:00;;;;;;;0.00;0.00;;;21.20;46.20;;;;;;4156232;28;20481;-74
2022/05/02 13:37:24;;;;;;;0.00;0.00;;;21.10;45.60;;;;;;4151808;28;20049;-73
2022/05/02 13:39:55;;;;;;;0.00;0.00;;;20.90;45.40;;;;;;4170185;28;20054;-73
2022/05/02 13:42:32;;;;;;;0.00;0.00;;;21.00;45.40;;;;;;4183691;28;20190;-72
2022/05/02 13:44:58;;;;;;;0.00;0.00;;;21.10;45.20;;;;;;4183989;28;20045;-73
2022/05/02 13:47:26;;;;;;;0.00;0.00;;;21.20;45.50;;;;;;4155895;28;20116;-71